• Join FlightAware (Why Join?)
  • Login
  • US Flag 
11:38PM EDT


 

Airport Tracker/Info


-or-


 

Live Flight TrackerFlight Track Log ✈ N26141 ✈ 02-May-2013 ✈ KBNA - KIAH

Flight Track Log - Related Links

Times and Time Zones

All times are in EDT time to prevent confusion due to time zone crossing. See the N26141 flight status page for this flight to view local times or setup timezone preferences in your user account.

Time Position Orientation Groundspeed Altitude Reporting Facility
EDT Latitude Longitude Course Direction KTS MPH feet Rate Location/Type
07:23AM 36.1500 -86.7000 253° West 190 219 1,300  Level Nashville TRACON
07:24AM 36.1500 -86.7833 270° West 211 243 3,500 1,980 Climbing Nashville TRACON
07:25AM 36.1333 -86.8667 256° West 280 322 5,700 2,400 Climbing Nashville TRACON
07:26AM 36.0969 -87.1761 248° West  Level FlightAware Approximate
07:26AM 36.1231 -86.9806 264° West 284 327 8,600  Level Memphis Center
07:27AM 36.0696 -87.2992 258° West  Level FlightAware Approximate
07:27AM 36.1133 -87.0864 264° West 284 327 11,200  Level Memphis Center
07:28AM 36.0523 -87.4243 253° West  Level FlightAware Approximate
07:28AM 36.1017 -87.1947 262° West 312 359 12,900  Level Memphis Center
07:29AM 36.0814 -87.3111 258° West 336 387 14,200 1,320 Climbing Memphis Center
07:30AM 36.0575 -87.4353 257° West 362 417 15,600 1,560 Climbing Memphis Center
07:31AM 36.0311 -87.5619 256° West 379 436 17,400 1,440 Climbing Memphis Center
07:32AM 36.0047 -87.6911 256° West 379 436 18,500 1,500 Climbing Memphis Center
07:33AM 35.9783 -87.8175 256° West 379 436 20,500 1,560 Climbing Memphis Center
07:34AM 35.9575 -87.9258 257° West 369 425 21,700 1,080 Climbing Memphis Center
07:35AM 35.9306 -88.0525 255° West 369 425 22,700 1,020 Climbing Memphis Center
07:36AM 35.8997 -88.1917 255° West 375 432 23,800 1,020 Climbing Memphis Center
07:37AM 35.8667 -88.3181 252° West 382 440 24,800 960 Climbing Memphis Center
07:38AM 35.8269 -88.4522 250° West 402 463 25,800 900 Climbing Memphis Center
07:39AM 35.7933 -88.5681 250° West 407 468 26,600 900 Climbing Memphis Center
07:40AM 35.7533 -88.7019 250° West 407 468 27,600 960 Climbing Memphis Center
07:41AM 35.7156 -88.8383 251° West 412 474 28,600 960 Climbing Memphis Center
07:42AM 35.6794 -88.9692 251° West 412 474 29,600 1,080 Climbing Memphis Center
07:43AM 35.6392 -89.1053 250° West 412 474 30,800 1,200 Climbing Memphis Center
07:44AM 35.6008 -89.2361 250° West 412 474 32,100 1,260 Climbing Memphis Center
07:45AM 35.5622 -89.3642 250° West 412 474 33,400 900 Climbing Memphis Center
07:46AM 35.5236 -89.4947 250° West 412 474 34,000 300 Climbing Memphis Center
07:47AM 35.4828 -89.6303 250° West 412 474 34,000  Level Memphis Center
07:48AM 35.4419 -89.7708 250° West 433 498 34,000  Level Memphis Center
07:49AM 35.4008 -89.9114 250° West 438 504 34,000  Level Memphis Center
07:50AM 35.3511 -90.0464 246° West 438 504 34,000  Level Memphis Center
07:51AM 35.2700 -90.1511 227° Southwest 433 498 34,000  Level Memphis Center
07:52AM 35.1889 -90.2556 226° Southwest 433 498 34,000  Level Memphis Center
07:53AM 35.0992 -90.3672 226° Southwest 423 487 34,000  Level Memphis Center
07:54AM 35.0136 -90.4736 226° Southwest 423 487 34,000  Level Memphis Center
07:55AM 34.9278 -90.5775 225° Southwest 428 493 34,000  Level Memphis Center
07:56AM 34.8442 -90.6811 225° Southwest 428 493 34,000  Level Memphis Center
07:57AM 34.7583 -90.7894 226° Southwest 436 502 34,000  Level Memphis Center
07:58AM 34.6725 -90.8900 224° Southwest 430 495 34,000  Level Memphis Center
07:59AM 34.5864 -90.9978 226° Southwest 435 501 34,000  Level Memphis Center
08:00AM 34.5022 -91.1006 225° Southwest 435 501 34,000  Level Memphis Center
08:01AM 34.4161 -91.2081 226° Southwest 440 506 34,000  Level Memphis Center
08:02AM 34.3297 -91.3128 225° Southwest 435 501 34,000  Level Memphis Center
08:03AM 34.2433 -91.4125 224° Southwest 430 495 34,000  Level Memphis Center
08:04AM 34.1550 -91.5167 224° Southwest 435 501 34,000  Level Memphis Center
08:05AM 34.0789 -91.6086 225° Southwest 429 494 34,000  Level Memphis Center
08:06AM 33.9942 -91.7275 229° Southwest 434 499 34,000  Level Memphis Center
08:07AM 33.8992 -91.8261 221° Southwest 434 499 34,000  Level Memphis Center
08:09AM 33.7819 -91.9683 225° Southwest 428 493 34,000  Level Fort Worth Center
08:10AM 33.6944 -92.0711 224° Southwest 435 501 34,000  Level Fort Worth Center
08:11AM 33.6069 -92.1739 224° Southwest 435 501 34,000  Level Fort Worth Center
08:12AM 33.5217 -92.2786 226° Southwest 440 506 34,000  Level Fort Worth Center
08:13AM 33.4319 -92.3808 224° Southwest 440 506 34,000  Level Fort Worth Center
08:14AM 33.3211 -92.4319 201° Southwest 432 497 34,000  Level Fort Worth Center
08:15AM 33.1969 -92.4536 188° South 437 503 34,000  Level Fort Worth Center
08:16AM 33.0725 -92.4781 189° South 444 511 34,000  Level Fort Worth Center
08:17AM 32.9503 -92.4972 187° South 451 519 34,000  Level Fort Worth Center
08:18AM 32.8217 -92.5214 189° South 457 526 34,000  Level Fort Worth Center
08:19AM 32.6953 -92.5433 188° South 462 532 34,000  Level Fort Worth Center
08:20AM 32.4586 -92.5872 189° South 467 537 34,000  Level Houston Center
08:21AM 32.3292 -92.6083 188° South 469 540 34,000  Level Houston Center
08:22AM 32.2025 -92.6339 190° South 463 533 34,000  Level Houston Center
08:23AM 32.0728 -92.6569 189° South 468 539 34,000 -60 Level Houston Center
08:24AM 31.9497 -92.7006 197° South 471 542 33,900  Descending Houston Center
08:25AM 31.8494 -92.7944 219° Southwest 462 532 34,000  Climbing Houston Center
08:26AM 31.7514 -92.8906 220° Southwest 460 529 34,000  Level Houston Center
08:27AM 31.6317 -93.0064 219° Southwest 463 533 34,000  Level Houston Center
08:29AM 31.5322 -93.1019 219° Southwest 463 533 34,000  Level Houston Center
08:30AM 31.4317 -93.1969 219° Southwest 464 534 34,000  Level Houston Center
08:31AM 31.3353 -93.2897 219° Southwest 465 535 34,000  Level Houston Center
08:32AM 31.2336 -93.3881 220° Southwest 462 532 34,000  Level Houston Center
08:33AM 31.1339 -93.4831 219° Southwest 463 533 34,000  Level Houston Center
08:34AM 31.0344 -93.5775 219° Southwest 463 533 34,000 -120 Level Houston Center
08:35AM 30.9164 -93.6903 219° Southwest 461 531 33,800 -1,020 Descending Houston Center
08:36AM 30.8153 -93.7850 219° Southwest 465 535 32,000 -2,460 Descending Houston Center
08:37AM 30.7153 -93.8797 219° Southwest 468 539 28,800 -3,180 Descending Houston Center
08:38AM 30.6178 -93.9714 219° Southwest 459 528 25,500 -3,240 Descending Houston Center
08:39AM 30.5231 -94.0594 219° Southwest 447 514 22,200 -3,540 Descending Houston Center
08:39AM 30.4733 -94.1075 220° Southwest 430 495 20,500 -3,120 Descending Houston Center
08:40AM 30.4311 -94.1458 218° Southwest 435 501 19,000 -2,940 Descending Houston Center
08:41AM 30.3419 -94.2292 219° Southwest 422 486 15,700 -3,420 Descending Houston Center
08:42AM 30.2439 -94.3586 229° Southwest 378 435 11,500 -2,400 Descending Houston Center
08:43AM 30.2058 -94.4408 242° Southwest 367 422 10,900 -780 Descending Houston Center
08:44AM 30.1578 -94.5511 243° Southwest 290 334 10,000 -1,080 Descending Houston Center
08:45AM 30.1289 -94.6186 244° Southwest 291 335 8,800 -1,500 Descending Houston Center
08:45AM 30.1161 -94.6411 237° Southwest 274 315 8,400 -780 Descending Houston Center
08:46AM 30.0942 -94.6947 245° Southwest 273 314 8,000 -420 Descending Houston Center
08:46AM 30.0836 -94.7178 242° Southwest 272 313 8,000 -540 Level Houston Center
08:47AM 30.0597 -94.7719 243° Southwest 271 312 7,500 -900 Descending Houston Center
08:47AM 30.0492 -94.7969 244° Southwest 270 311 7,100 -540 Descending Houston Center
08:48AM 30.0275 -94.8478 244° Southwest 266 306 7,000 -180 Descending Houston Center
08:49AM 29.9925 -94.9214 241° Southwest 263 303 6,800 -540 Descending Houston Center
08:50AM 29.9947 -94.9903 272° West 213 245 5,900 -1,020 Descending Houston Center
08:51AM 29.9933 -95.0492 268° West 188 216 4,800 -1,140 Descending Houston Center
08:52AM 29.9942 -95.1161 271° West 176 203 3,600 -1,080 Descending Houston Center
08:53AM 29.9933 -95.1728 269° West 176 203 2,600 -1,020 Descending Houston Center